METAR Data
IDs: Format: Raw Decoded Include TAF

Data at: 1343 UTC 14 Dec 2019

PAIK 141256Z AUTO 09013G17KT 10SM BKN055 M04/M09 A2966 RMK AO2 SLP047 T10441094 FZRANO
PAIK 141156Z AUTO 11011KT 10SM OVC055 M05/M09 A2966 RMK AO2 SLP049 T10501094 11044 21089 50003 FZRANO
PAIK 141056Z AUTO 08011KT 10SM OVC050 M05/M09 A2967 RMK AO2 SLP049 T10501094 FZRANO
PAIK 140956Z AUTO 04005KT 10SM OVC046 M06/M10 A2966 RMK AO2 SLP048 T10611100 FZRANO
PAIK 140856Z AUTO 05004KT 10SM OVC090 M06/M11 A2965 RMK AO2 SLP046 T10611106 410611150 53013 FZRANO
PAIK 140756Z AUTO VRB03KT 10SM OVC090 M08/M12 A2963 RMK AO2 SLP039 T10781117 FZRANO
PAIK 140656Z AUTO 12006G14KT 10SM FEW095 M08/M12 A2962 RMK AO2 SLP036 T10781117 FZRANO
PAIK 140556Z AUTO 12006KT 10SM CLR M09/M12 A2962 RMK AO2 SLP033 T10891122 11078 21117 51015 FZRANO
PAIK 140456Z AUTO 10006KT 10SM BKN085 M09/M13 A2960 RMK AO2 SLP029 T10891128 FZRANO
PAIK 140356Z AUTO 10011KT 10SM SCT050 OVC065 M08/M12 A2959 RMK AO2 SLP025 T10781122 FZRANO
PAIK 140256Z AUTO 09007KT 10SM OVC041 M08/M13 A2957 RMK AO2 SLP018 T10831128 53013 FZRANO
PAIK 140156Z AUTO 10012G17KT 10SM OVC036 M08/M13 A2956 RMK AO2 SLP013 T10831133 FZRANO
PAIK 140056Z AUTO VRB03KT 10SM OVC042 M10/M14 A2955 RMK AO2 SLP011 T11001144 FZRANO
PAIK 132356Z AUTO 09007KT 10SM BKN050 M12/M16 A2953 RMK AO2 SLP005 T11171161 11106 21128 53006 FZRANO
PAIK 132256Z AUTO 09011KT 10SM SCT044 M11/M16 A2952 RMK AO2 SLP000 T11061161 FZRANO
PAIK 132156Z AUTO 10004KT 10SM OVC050 M11/M16 A2952 RMK AO2 SLP000 T11111161 FZRANO
PAIK 132056Z AUTO VRB03KT 10SM OVC048 M12/M17 A2951 RMK AO2 SLP999 T11171172 53012 FZRANO
PAIK 131956Z AUTO 10008KT 10SM CLR M12/M18 A2949 RMK AO2 SLP991 T11221178 FZRANO
PAIK 131856Z AUTO 09010KT 10SM CLR M12/M18 A2947 RMK AO2 SLP983 T11171183 FZRANO
PAIK 131756Z AUTO 12009G16KT 10SM CLR M12/M18 A2948 RMK AO2 SLP986 T11171183 11100 21150 53000 FZRANO
PAIK 131556Z AUTO 11004KT 10SM CLR M12/M18 A2947 RMK AO2 SLP984 T11221178 FZRANO
PAIK 131456Z AUTO 00000KT 10SM CLR M14/M17 A2948 RMK AO2 SLP986 T11441172 58005 FZRANO
PAIK 131356Z AUTO 00000KT 10SM CLR M15/M18 A2949 RMK AO2 SLP989 T11501178 FZRANO
PAIK 131256Z AUTO 00000KT 10SM CLR M14/M17 A2948 RMK AO2 SLP988 T11441172 FZRANO
PAIK 131156Z AUTO 24004KT 10SM CLR M14/M17 A2949 RMK AO2 SLP991 T11391167 11061 21139 56004 FZRANO
PAIK 131056Z AUTO 10004KT 10SM CLR M13/M16 A2949 RMK AO2 SLP991 T11281156 FZRANO
PAIK 130956Z AUTO 00000KT 10SM CLR M12/M16 A2950 RMK AO2 SLP994 T11171156 FZRANO
PAIK 130856Z AUTO 03003KT 10SM CLR M12/M15 A2950 RMK AO2 SLP995 T11171150 410331117 56004 FZRANO
PAIK 130756Z AUTO 03004KT 10SM CLR M08/M13 A2950 RMK AO2 SLP994 T10781133 FZRANO
PAIK 130656Z AUTO 00000KT 10SM CLR M10/M14 A2950 RMK AO2 SLP993 T11001144 FZRANO
PAIK 130556Z AUTO 00000KT 10SM CLR M11/M14 A2952 RMK AO2 SLP998 T11061144 11033 21106 58003 FZRANO
PAIK 130456Z AUTO VRB04KT 10SM CLR M07/M13 A2952 RMK AO2 SLP001 T10671128 FZRANO
PAIK 130356Z AUTO VRB05KT 10SM CLR M04/M12 A2952 RMK AO2 SLP999 T10441122 FZRANO
PAIK 130256Z AUTO 00000KT 10SM CLR M06/M11 A2952 RMK AO2 SLP001 T10611111 55004 FZRANO
PAIK 130156Z AUTO 12004KT 10SM CLR M05/M10 A2952 RMK AO2 SLP000 T10501100 FZRANO